Time;durP1;ratioP1;P1;durP2;ratioP2;P2;SDS_P1;SDS_P2;PMS_P1;PMS_P2;Temp;Humidity;BMP_temperature;BMP_pressure;BME280_temperature;BME280_humidity;BME280_pressure;Samples;Min_cycle;Max_cycle;Signal;HPM_P1;HPM_P2
2023/06/23 00:01:01;;;;;;;;;;;;;;;;;;2197721;59;2231;-23
2023/06/23 00:03:34;;;;;;;;;;;;;;;;;;2197603;67;2125;-25
2023/06/23 00:06:04;;;;;;;;;;;;;;;;;;2197687;67;2568;-23
2023/06/23 00:08:35;;;;;;;;;;;;;;;;;;2197580;67;2080;-23
2023/06/23 00:11:06;;;;;;;;;;;;;;;;;;2198331;67;2745;-23
2023/06/23 00:13:37;;;;;;;;;;;;;;;;;;2197914;67;3086;-23
2023/06/23 00:16:07;;;;;;;;;;;;;;;;;;2196490;59;3782;-23
2023/06/23 00:18:39;;;;;;;;;;;;;;;;;;2198130;59;1945;-23
2023/06/23 00:21:09;;;;;;;;;;;;;;;;;;2197581;67;2010;-23
2023/06/23 00:23:40;;;;;;;;;;;;;;;;;;2198213;67;2074;-23
2023/06/23 00:26:11;;;;;;;;;;;;;;;;;;2197434;59;2157;-23
2023/06/23 00:28:41;;;;;;;;;;;;;;;;;;2198288;67;1900;-23
2023/06/23 00:31:11;;;;;;;;;;;;;;;;;;2197306;59;1905;-24
2023/06/23 00:33:42;;;;;;;;;;;;;;;;;;2198394;59;2050;-24
2023/06/23 00:36:12;;;;;;;;;;;;;;;;;;2197254;67;2064;-24
2023/06/23 00:38:44;;;;;;;;;;;;;;;;;;2198671;67;2013;-24
2023/06/23 00:41:14;;;;;;;;;;;;;;;;;;2196735;67;2790;-24
2023/06/23 00:43:49;;;;;;;;;;;;;;;;;;2197670;67;2731;-24
2023/06/23 00:46:20;;;;;;;;;;;;;;;;;;2196952;59;2281;-24
2023/06/23 00:48:51;;;;;;;;;;;;;;;;;;2198104;67;2511;-24
2023/06/23 00:51:25;;;;;;;;;;;;;;;;;;2197500;59;2070;-24
2023/06/23 00:53:58;;;;;;;;;;;;;;;;;;2197634;67;2791;-24
2023/06/23 00:56:30;;;;;;;;;;;;;;;;;;2197315;67;2107;-24
2023/06/23 00:59:02;;;;;;;;;;;;;;;;;;2198970;59;2571;-24
2023/06/23 01:01:32;;;;;;;;;;;;;;;;;;2198316;59;3067;-24
2023/06/23 01:04:03;;;;;;;;;;;;;;;;;;2198597;67;1932;-24
2023/06/23 01:06:39;;;;;;;;;;;;;;;;;;2197736;67;2157;-25
2023/06/23 01:09:20;;;;;;;;;;;;;;;;;;2197194;59;2142;-25
2023/06/23 01:12:03;;;;;;;;;;;;;;;;;;2197622;60;2730;-25
2023/06/23 01:14:39;;;;;;;;;;;;;;;;;;2198077;59;2706;-26
2023/06/23 01:17:15;;;;;;;;;;;;;;;;;;2195725;67;3177;-26
2023/06/23 01:19:54;;;;;;;;;;;;;;;;;;2198752;59;2059;-26
2023/06/23 01:22:30;;;;;;;;;;;;;;;;;;2198445;67;2183;-26
2023/06/23 01:25:26;;;;;;;;;;;;;;;;;;2198083;59;2547;-26
2023/06/23 01:28:02;;;;;;;;;;;;;;;;;;2198329;59;2199;-26
2023/06/23 01:30:33;;;;;;;;;;;;;;;;;;2197612;59;2890;-25
2023/06/23 01:33:08;;;;;;;;;;;;;;;;;;2197875;59;2503;-26
2023/06/23 01:35:42;;;;;;;;;;;;;;;;;;2198001;59;3280;-26
2023/06/23 01:38:28;;;;;;;;;;;;;;;;;;2197285;67;2071;-26
2023/06/23 01:40:59;;;;;;;;;;;;;;;;;;2197950;67;1948;-25
2023/06/23 01:43:31;;;;;;;;;;;;;;;;;;2198083;59;2389;-26
2023/06/23 01:46:06;;;;;;;;;;;;;;;;;;2198845;59;2744;-25
2023/06/23 01:48:38;;;;;;;;;;;;;;;;;;2198067;59;2214;-25
2023/06/23 01:51:09;;;;;;;;;;;;;;;;;;2198348;59;2091;-25
2023/06/23 01:53:40;;;;;;;;;;;;;;;;;;2198272;67;1997;-25
2023/06/23 01:56:12;;;;;;;;;;;;;;;;;;2197945;59;2621;-25
2023/06/23 01:58:43;;;;;;;;;;;;;;;;;;2197725;59;2571;-25
2023/06/23 02:01:13;;;;;;;;;;;;;;;;;;2197758;59;2041;-26
2023/06/23 02:03:45;;;;;;;;;;;;;;;;;;2199156;59;2412;-26
2023/06/23 02:06:16;;;;;;;;;;;;;;;;;;2198036;67;2322;-25
2023/06/23 02:08:50;;;;;;;;;;;;;;;;;;2198352;67;2482;-26
2023/06/23 02:11:22;;;;;;;;;;;;;;;;;;2197813;67;2028;-26
2023/06/23 02:13:55;;;;;;;;;;;;;;;;;;2198642;59;2081;-25
2023/06/23 02:16:27;;;;;;;;;;;;;;;;;;2197014;59;3124;-26
2023/06/23 02:18:58;;;;;;;;;;;;;;;;;;2197304;67;3286;-26
2023/06/23 02:21:29;;;;;;;;;;;;;;;;;;2198395;59;1935;-26
2023/06/23 02:24:03;;;;;;;;;;;;;;;;;;2198366;67;2466;-26
2023/06/23 02:26:35;;;;;;;;;;;;;;;;;;2198406;59;2128;-27
2023/06/23 02:29:06;;;;;;;;;;;;;;;;;;2198227;67;2373;-26
2023/06/23 02:31:36;;;;;;;;;;;;;;;;;;2198375;59;1768;-26
2023/06/23 02:34:07;;;;;;;;;;;;;;;;;;2198132;67;2533;-26
2023/06/23 02:36:41;;;;;;;;;;;;;;;;;;2198105;67;2065;-26
2023/06/23 02:39:13;;;;;;;;;;;;;;;;;;2198482;67;2111;-26
2023/06/23 02:41:45;;;;;;;;;;;;;;;;;;2198650;59;2132;-26
2023/06/23 02:44:17;;;;;;;;;;;;;;;;;;2197577;59;1935;-26
2023/06/23 02:46:52;;;;;;;;;;;;;;;;;;2198381;67;2468;-26
2023/06/23 02:49:24;;;;;;;;;;;;;;;;;;2197872;59;2088;-26
2023/06/23 02:51:56;;;;;;;;;;;;;;;;;;2200129;59;2354;-26
2023/06/23 02:54:31;;;;;;;;;;;;;;;;;;2198116;67;2182;-25
2023/06/23 02:57:02;;;;;;;;;;;;;;;;;;2198236;67;2648;-26
2023/06/23 02:59:33;;;;;;;;;;;;;;;;;;2198400;59;2376;-26
2023/06/23 03:02:06;;;;;;;;;;;;;;;;;;2198534;59;2854;-26
2023/06/23 03:04:38;;;;;;;;;;;;;;;;;;2200919;67;2166;-26
2023/06/23 03:07:12;;;;;;;;;;;;;;;;;;2197592;67;2582;-27
2023/06/23 03:09:45;;;;;;;;;;;;;;;;;;2198382;67;2422;-26
2023/06/23 03:12:15;;;;;;;;;;;;;;;;;;2197831;67;2217;-26
2023/06/23 03:14:45;;;;;;;;;;;;;;;;;;2198850;59;2093;-28
2023/06/23 03:17:21;;;;;;;;;;;;;;;;;;2197602;67;3180;-26
2023/06/23 03:20:22;;;;;;;;;;;;;;;;;;2198396;59;3492;-26
2023/06/23 03:22:56;;;;;;;;;;;;;;;;;;2197244;64;1744;-26
2023/06/23 03:25:27;;;;;;;;;;;;;;;;;;2198052;59;1826;-26
2023/06/23 03:28:01;;;;;;;;;;;;;;;;;;2198612;59;1862;-27
2023/06/23 03:30:35;;;;;;;;;;;;;;;;;;2197726;59;1914;-26
2023/06/23 03:33:11;;;;;;;;;;;;;;;;;;2197760;67;1740;-27
2023/06/23 03:35:44;;;;;;;;;;;;;;;;;;2198283;67;2268;-26
2023/06/23 03:38:15;;;;;;;;;;;;;;;;;;2197648;67;2069;-27
2023/06/23 03:40:47;;;;;;;;;;;;;;;;;;2197814;67;2736;-26
2023/06/23 03:43:22;;;;;;;;;;;;;;;;;;2198202;67;1833;-27
2023/06/23 03:45:56;;;;;;;;;;;;;;;;;;2197229;67;2023;-26
2023/06/23 03:48:28;;;;;;;;;;;;;;;;;;2197912;67;1587;-26
2023/06/23 03:51:00;;;;;;;;;;;;;;;;;;2198049;67;2544;-26
2023/06/23 03:53:31;;;;;;;;;;;;;;;;;;2198322;67;1851;-26
2023/06/23 03:56:02;;;;;;;;;;;;;;;;;;2198218;67;1852;-26
2023/06/23 03:58:33;;;;;;;;;;;;;;;;;;2198121;59;1960;-26
2023/06/23 04:01:05;;;;;;;;;;;;;;;;;;2198134;59;1933;-27
2023/06/23 04:03:37;;;;;;;;;;;;;;;;;;2198474;67;1792;-27
2023/06/23 04:06:09;;;;;;;;;;;;;;;;;;2198315;59;2133;-27
2023/06/23 04:08:40;;;;;;;;;;;;;;;;;;2198941;59;3040;-27
2023/06/23 04:11:12;;;;;;;;;;;;;;;;;;2197997;67;2682;-26
2023/06/23 04:13:43;;;;;;;;;;;;;;;;;;2199149;59;2688;-26
2023/06/23 04:16:14;;;;;;;;;;;;;;;;;;2197696;67;2642;-27
2023/06/23 04:18:46;;;;;;;;;;;;;;;;;;2197754;59;2986;-27
2023/06/23 04:21:17;;;;;;;;;;;;;;;;;;2198260;67;1984;-27
2023/06/23 04:23:48;;;;;;;;;;;;;;;;;;2198971;59;2750;-26
2023/06/23 04:26:18;;;;;;;;;;;;;;;;;;2198842;59;1802;-27
2023/06/23 04:28:51;;;;;;;;;;;;;;;;;;2199031;67;2081;-26
2023/06/23 04:31:22;;;;;;;;;;;;;;;;;;2197848;59;2455;-26
2023/06/23 04:33:52;;;;;;;;;;;;;;;;;;2199789;67;2837;-27
2023/06/23 04:36:23;;;;;;;;;;;;;;;;;;2198459;67;3236;-27
2023/06/23 04:38:59;;;;;;;;;;;;;;;;;;2199273;59;1975;-28
2023/06/23 04:41:31;;;;;;;;;;;;;;;;;;2199006;67;1787;-26
2023/06/23 04:44:05;;;;;;;;;;;;;;;;;;2199294;67;1904;-27
2023/06/23 04:46:38;;;;;;;;;;;;;;;;;;2198452;67;1976;-27
2023/06/23 04:49:10;;;;;;;;;;;;;;;;;;2198547;67;1919;-27
2023/06/23 04:51:43;;;;;;;;;;;;;;;;;;2198341;59;1947;-27
2023/06/23 04:54:17;;;;;;;;;;;;;;;;;;2198235;67;2810;-26
2023/06/23 04:56:49;;;;;;;;;;;;;;;;;;2195489;67;1912;-26
2023/06/23 04:59:20;;;;;;;;;;;;;;;;;;2198791;59;2273;-26
2023/06/23 05:01:51;;;;;;;;;;;;;;;;;;2198633;67;1934;-26
2023/06/23 05:04:22;;;;;;;;;;;;;;;;;;2198447;67;1865;-26
2023/06/23 05:06:53;;;;;;;;;;;;;;;;;;2198728;59;2802;-27
2023/06/23 05:09:24;;;;;;;;;;;;;;;;;;2198543;59;1885;-27
2023/06/23 05:11:55;;;;;;;;;;;;;;;;;;2198673;59;1924;-26
2023/06/23 05:14:26;;;;;;;;;;;;;;;;;;2198209;59;1770;-26
2023/06/23 05:16:58;;;;;;;;;;;;;;;;;;2198542;59;1859;-26
2023/06/23 05:19:29;;;;;;;;;;;;;;;;;;2198231;59;3363;-27
2023/06/23 05:22:03;;;;;;;;;;;;;;;;;;2197442;67;3400;-26
2023/06/23 05:24:34;;;;;;;;;;;;;;;;;;2197865;59;2775;-26
2023/06/23 05:27:08;;;;;;;;;;;;;;;;;;2198871;59;2158;-26
2023/06/23 05:29:40;;;;;;;;;;;;;;;;;;2198604;67;1892;-26
2023/06/23 05:32:13;;;;;;;;;;;;;;;;;;2202233;59;2646;-26
2023/06/23 05:34:45;;;;;;;;;;;;;;;;;;2202877;59;2665;-27
2023/06/23 05:37:19;;;;;;;;;;;;;;;;;;2202144;59;2558;-26
2023/06/23 05:39:51;;;;;;;;;;;;;;;;;;2203336;59;2528;-27
2023/06/23 05:42:21;;;;;;;;;;;;;;;;;;2201410;59;2583;-26
2023/06/23 05:44:51;;;;;;;;;;;;;;;;;;2201531;59;2468;-27
2023/06/23 05:47:24;;;;;;;;;;;;;;;;;;2197174;59;2303;-27
2023/06/23 05:49:55;;;;;;;;;;;;;;;;;;2200862;59;2648;-27
2023/06/23 05:52:26;;;;;;;;;;;;;;;;;;2202271;59;2267;-27
2023/06/23 05:54:59;;;;;;;;;;;;;;;;;;2201653;59;2697;-26
2023/06/23 05:57:31;;;;;;;;;;;;;;;;;;2201265;59;1750;-26
2023/06/23 06:00:07;;;;;;;;;;;;;;;;;;2200046;59;2433;-26
2023/06/23 06:02:39;;;;;;;;;;;;;;;;;;2202102;59;2952;-26
2023/06/23 06:05:11;;;;;;;;;;;;;;;;;;2201980;67;1631;-27
2023/06/23 06:07:45;;;;;;;;;;;;;;;;;;2202671;67;1606;-26
2023/06/23 06:10:18;;;;;;;;;;;;;;;;;;2202104;67;1780;-26
2023/06/23 06:12:49;;;;;;;;;;;;;;;;;;2202841;67;2062;-26
2023/06/23 06:15:23;;;;;;;;;;;;;;;;;;2201671;59;1735;-26
2023/06/23 06:17:54;;;;;;;;;;;;;;;;;;2202003;67;2078;-26
2023/06/23 06:20:24;;;;;;;;;;;;;;;;;;2201793;59;2715;-26
2023/06/23 06:22:58;;;;;;;;;;;;;;;;;;2201907;59;2306;-26
2023/06/23 06:25:29;;;;;;;;;;;;;;;;;;2201737;59;1968;-26
2023/06/23 06:28:00;;;;;;;;;;;;;;;;;;2201685;59;1940;-26
2023/06/23 06:30:31;;;;;;;;;;;;;;;;;;2198952;59;1730;-26
2023/06/23 06:33:02;;;;;;;;;;;;;;;;;;2202313;59;2389;-25
2023/06/23 06:35:34;;;;;;;;;;;;;;;;;;2201389;59;2199;-25
2023/06/23 06:38:05;;;;;;;;;;;;;;;;;;2201146;59;3094;-26
2023/06/23 06:40:36;;;;;;;;;;;;;;;;;;2198503;67;1941;-26
2023/06/23 06:43:07;;;;;;;;;;;;;;;;;;2196384;59;2550;-26
2023/06/23 06:45:37;;;;;;;;;;;;;;;;;;2200615;59;2293;-26
2023/06/23 06:48:08;;;;;;;;;;;;;;;;;;2201622;59;2532;-25
2023/06/23 06:50:39;;;;;;;;;;;;;;;;;;2202472;67;1821;-25
2023/06/23 06:53:09;;;;;;;;;;;;;;;;;;2201641;59;1997;-26
2023/06/23 06:55:41;;;;;;;;;;;;;;;;;;2202716;59;1813;-25
2023/06/23 06:58:12;;;;;;;;;;;;;;;;;;2198385;59;1829;-25
2023/06/23 07:00:43;;;;;;;;;;;;;;;;;;2200011;59;2364;-25
2023/06/23 07:03:13;;;;;;;;;;;;;;;;;;2202268;60;1963;-25
2023/06/23 07:05:46;;;;;;;;;;;;;;;;;;2202458;67;2576;-25
2023/06/23 07:08:16;;;;;;;;;;;;;;;;;;2202687;59;1791;-25
2023/06/23 07:10:47;;;;;;;;;;;;;;;;;;2202206;59;1748;-25
2023/06/23 07:13:17;;;;;;;;;;;;;;;;;;2202450;67;2417;-25
2023/06/23 07:15:47;;;;;;;;;;;;;;;;;;2202628;59;1890;-25
2023/06/23 07:18:17;;;;;;;;;;;;;;;;;;2200428;59;2013;-25
2023/06/23 07:20:48;;;;;;;;;;;;;;;;;;2200691;59;2136;-25
2023/06/23 07:23:18;;;;;;;;;;;;;;;;;;2198481;59;2820;-25
2023/06/23 07:25:48;;;;;;;;;;;;;;;;;;2197757;59;2400;-25
2023/06/23 07:28:20;;;;;;;;;;;;;;;;;;2198913;59;2610;-25
2023/06/23 07:30:50;;;;;;;;;;;;;;;;;;2199572;59;2057;-25
2023/06/23 07:33:20;;;;;;;;;;;;;;;;;;2195716;59;2100;-25
2023/06/23 07:35:50;;;;;;;;;;;;;;;;;;2200742;59;2214;-25
2023/06/23 07:38:21;;;;;;;;;;;;;;;;;;2203024;59;2129;-25
2023/06/23 07:40:51;;;;;;;;;;;;;;;;;;2200752;67;2533;-24
2023/06/23 07:43:21;;;;;;;;;;;;;;;;;;2201772;67;1748;-25
2023/06/23 07:45:51;;;;;;;;;;;;;;;;;;2202235;67;2414;-24
2023/06/23 07:48:22;;;;;;;;;;;;;;;;;;2202149;67;2826;-24
2023/06/23 07:50:52;;;;;;;;;;;;;;;;;;2202164;59;2515;-24
2023/06/23 07:53:22;;;;;;;;;;;;;;;;;;2202236;67;2025;-24
2023/06/23 07:55:53;;;;;;;;;;;;;;;;;;2201169;59;3004;-24
2023/06/23 07:58:23;;;;;;;;;;;;;;;;;;2198199;59;2388;-24
2023/06/23 08:00:53;;;;;;;;;;;;;;;;;;2201898;59;1937;-24
2023/06/23 08:03:23;;;;;;;;;;;;;;;;;;2198343;59;2102;-24
2023/06/23 08:05:54;;;;;;;;;;;;;;;;;;2202753;59;2621;-24
2023/06/23 08:08:24;;;;;;;;;;;;;;;;;;2203363;67;1745;-24
2023/06/23 08:10:57;;;;;;;;;;;;;;;;;;2199645;67;1992;-24
2023/06/23 08:13:27;;;;;;;;;;;;;;;;;;2201822;67;2615;-24
2023/06/23 08:15:58;;;;;;;;;;;;;;;;;;2202702;59;2679;-24
2023/06/23 08:18:28;;;;;;;;;;;;;;;;;;2201950;59;5800;-24
2023/06/23 08:20:58;;;;;;;;;;;;;;;;;;2202808;67;2007;-24
2023/06/23 08:23:28;;;;;;;;;;;;;;;;;;2201805;59;2327;-24
2023/06/23 08:25:59;;;;;;;;;;;;;;;;;;2202148;59;1570;-24
2023/06/23 08:28:29;;;;;;;;;;;;;;;;;;2202633;59;2042;-24
2023/06/23 08:30:59;;;;;;;;;;;;;;;;;;2201700;59;2242;-24
2023/06/23 08:33:33;;;;;;;;;;;;;;;;;;2203637;67;1877;-24
2023/06/23 08:36:03;;;;;;;;;;;;;;;;;;2201692;67;2245;-24
2023/06/23 08:38:33;;;;;;;;;;;;;;;;;;2198366;67;1985;-24
2023/06/23 08:41:05;;;;;;;;;;;;;;;;;;2200522;59;2197;-24
2023/06/23 08:43:35;;;;;;;;;;;;;;;;;;2201734;67;1966;-24
2023/06/23 08:46:07;;;;;;;;;;;;;;;;;;2201455;67;1975;-24
2023/06/23 08:48:38;;;;;;;;;;;;;;;;;;2202576;67;1875;-24
2023/06/23 08:51:08;;;;;;;;;;;;;;;;;;2202801;59;1788;-24
2023/06/23 08:53:39;;;;;;;;;;;;;;;;;;2199065;67;2282;-24
2023/06/23 08:56:09;;;;;;;;;;;;;;;;;;2202751;67;2380;-24
2023/06/23 08:58:40;;;;;;;;;;;;;;;;;;2202478;67;1711;-24
2023/06/23 09:01:10;;;;;;;;;;;;;;;;;;2201896;59;3479;-24
2023/06/23 09:03:44;;;;;;;;;;;;;;;;;;2199431;59;1760;-24
2023/06/23 09:06:14;;;;;;;;;;;;;;;;;;2201689;59;2142;-24
2023/06/23 09:08:45;;;;;;;;;;;;;;;;;;2203144;67;1927;-24
2023/06/23 09:11:15;;;;;;;;;;;;;;;;;;2202808;67;2247;-24
2023/06/23 09:13:46;;;;;;;;;;;;;;;;;;2202775;67;1741;-24
2023/06/23 09:16:18;;;;;;;;;;;;;;;;;;2199607;59;2230;-24
2023/06/23 09:18:48;;;;;;;;;;;;;;;;;;2201798;59;2422;-24
2023/06/23 09:21:20;;;;;;;;;;;;;;;;;;2203001;59;2014;-24
2023/06/23 09:24:03;;;;;;;;;;;;;;;;;;2202353;59;2213;-24
2023/06/23 09:26:47;;;;;;;;;;;;;;;;;;2198978;59;2401;-24
2023/06/23 09:29:17;;;;;;;;;;;;;;;;;;2201812;67;2574;-24
2023/06/23 09:31:50;;;;;;;;;;;;;;;;;;2201520;59;1856;-24
2023/06/23 09:34:21;;;;;;;;;;;;;;;;;;2202278;67;2874;-24
2023/06/23 09:36:54;;;;;;;;;;;;;;;;;;2203064;67;1777;-24
2023/06/23 09:39:25;;;;;;;;;;;;;;;;;;2202701;67;2702;-24
2023/06/23 09:41:56;;;;;;;;;;;;;;;;;;2201180;67;2260;-24
2023/06/23 09:44:33;;;;;;;;;;;;;;;;;;2203141;67;2183;-24
2023/06/23 09:47:04;;;;;;;;;;;;;;;;;;2202456;67;2388;-24
2023/06/23 09:49:47;;;;;;;;;;;;;;;;;;2202230;59;1865;-24
2023/06/23 09:52:25;;;;;;;;;;;;;;;;;;2199972;59;2836;-21
2023/06/23 09:54:55;;;;;;;;;;;;;;;;;;2202571;67;2169;-22
2023/06/23 09:57:25;;;;;;;;;;;;;;;;;;2202134;59;1700;-22
2023/06/23 09:59:58;;;;;;;;;;;;;;;;;;2202422;59;2190;-22
2023/06/23 10:02:29;;;;;;;;;;;;;;;;;;2199019;59;2431;-21
2023/06/23 10:05:00;;;;;;;;;;;;;;;;;;2201863;67;1770;-21
2023/06/23 10:07:31;;;;;;;;;;;;;;;;;;2199483;67;1729;-23
2023/06/23 10:10:12;;;;;;;;;;;;;;;;;;2203495;67;1307;-23
2023/06/23 10:12:43;;;;;;;;;;;;;;;;;;2203106;67;2292;-23
2023/06/23 10:15:13;;;;;;;;;;;;;;;;;;2201432;59;1684;-22
2023/06/23 10:17:44;;;;;;;;;;;;;;;;;;2202097;67;1154;-23
2023/06/23 10:20:17;;;;;;;;;;;;;;;;;;2202434;59;1987;-23
2023/06/23 10:22:48;;;;;;;;;;;;;;;;;;2202402;67;1267;-23
2023/06/23 10:25:19;;;;;;;;;;;;;;;;;;2201541;59;2614;-22
2023/06/23 10:27:50;;;;;;;;;;;;;;;;;;2201404;59;2641;-23
2023/06/23 10:30:21;;;;;;;;;;;;;;;;;;2201368;59;1787;-23
2023/06/23 10:32:54;;;;;;;;;;;;;;;;;;2202174;67;2244;-23
2023/06/23 10:35:24;;;;;;;;;;;;;;;;;;2202613;67;1923;-23
2023/06/23 10:38:04;;;;;;;;;;;;;;;;;;2201770;59;1740;-22
2023/06/23 10:40:39;;;;;;;;;;;;;;;;;;2196000;67;2007;-23
2023/06/23 10:43:10;;;;;;;;;;;;;;;;;;2202082;67;1867;-23
2023/06/23 10:45:40;;;;;;;;;;;;;;;;;;2202517;67;2106;-23
2023/06/23 10:48:11;;;;;;;;;;;;;;;;;;2202339;67;1880;-23
2023/06/23 10:50:42;;;;;;;;;;;;;;;;;;2203028;59;1765;-23
2023/06/23 10:53:18;;;;;;;;;;;;;;;;;;2202895;59;2796;-23
2023/06/23 10:55:54;;;;;;;;;;;;;;;;;;2203533;67;2250;-23
2023/06/23 10:58:28;;;;;;;;;;;;;;;;;;2201977;59;1739;-23
2023/06/23 11:01:00;;;;;;;;;;;;;;;;;;2201239;59;2035;-23
2023/06/23 11:03:30;;;;;;;;;;;;;;;;;;2201567;59;2279;-23
2023/06/23 11:06:04;;;;;;;;;;;;;;;;;;2201154;67;2552;-23
2023/06/23 11:08:42;;;;;;;;;;;;;;;;;;2201652;67;1848;-23
2023/06/23 11:11:15;;;;;;;;;;;;;;;;;;2202825;67;1723;-23
2023/06/23 11:13:46;;;;;;;;;;;;;;;;;;2201653;59;1990;-23
2023/06/23 11:16:34;;;;;;;;;;;;;;;;;;2201961;59;1952;-23
2023/06/23 11:19:04;;;;;;;;;;;;;;;;;;2198731;59;3198;-23
2023/06/23 11:21:38;;;;;;;;;;;;;;;;;;2202510;59;2615;-23
2023/06/23 11:24:12;;;;;;;;;;;;;;;;;;2202471;59;1945;-22
2023/06/23 11:26:54;;;;;;;;;;;;;;;;;;2201165;59;3482;-22
2023/06/23 11:29:24;;;;;;;;;;;;;;;;;;2202382;59;2063;-22
2023/06/23 11:32:06;;;;;;;;;;;;;;;;;;2201707;59;1983;-25
2023/06/23 11:35:01;;;;;;;;;;;;;;;;;;2202421;60;1864;-22
2023/06/23 11:37:46;;;;;;;;;;;;;;;;;;2202072;59;2036;-22
2023/06/23 11:40:18;;;;;;;;;;;;;;;;;;2199702;67;2166;-23
2023/06/23 11:42:48;;;;;;;;;;;;;;;;;;2201982;59;2110;-23
2023/06/23 11:45:21;;;;;;;;;;;;;;;;;;2200741;67;2331;-23
2023/06/23 11:47:51;;;;;;;;;;;;;;;;;;2200566;59;2360;-23
2023/06/23 11:50:21;;;;;;;;;;;;;;;;;;2201074;67;2604;-23
2023/06/23 11:52:52;;;;;;;;;;;;;;;;;;2201882;59;1838;-23
2023/06/23 11:55:22;;;;;;;;;;;;;;;;;;2202859;59;2450;-23
2023/06/23 11:57:53;;;;;;;;;;;;;;;;;;2203129;59;2241;-22
2023/06/23 12:00:23;;;;;;;;;;;;;;;;;;2202782;67;2565;-22
2023/06/23 12:02:54;;;;;;;;;;;;;;;;;;2197383;67;2142;-23
2023/06/23 12:05:24;;;;;;;;;;;;;;;;;;2202655;67;2503;-23
2023/06/23 12:07:55;;;;;;;;;;;;;;;;;;2203026;67;2110;-23
2023/06/23 12:10:25;;;;;;;;;;;;;;;;;;2203492;67;2165;-23
2023/06/23 12:12:58;;;;;;;;;;;;;;;;;;2203853;67;1990;-23
2023/06/23 12:15:29;;;;;;;;;;;;;;;;;;2202448;59;2088;-23
2023/06/23 12:17:59;;;;;;;;;;;;;;;;;;2202206;67;2074;-23
2023/06/23 12:20:32;;;;;;;;;;;;;;;;;;2202522;59;2243;-23
2023/06/23 12:23:06;;;;;;;;;;;;;;;;;;2201997;67;2439;-23
2023/06/23 12:25:41;;;;;;;;;;;;;;;;;;2201752;67;2136;-23
2023/06/23 12:28:13;;;;;;;;;;;;;;;;;;2201801;59;2004;-23
2023/06/23 12:30:44;;;;;;;;;;;;;;;;;;2199456;59;1932;-23
2023/06/23 12:33:21;;;;;;;;;;;;;;;;;;2202753;67;2064;-23
2023/06/23 12:35:58;;;;;;;;;;;;;;;;;;2203435;59;2446;-22
2023/06/23 12:38:30;;;;;;;;;;;;;;;;;;2203382;67;1863;-23
2023/06/23 12:41:33;;;;;;;;;;;;;;;;;;2196166;67;2823;-23
2023/06/23 12:44:12;;;;;;;;;;;;;;;;;;2196936;67;1992;-23
2023/06/23 12:46:43;;;;;;;;;;;;;;;;;;2202885;67;2004;-23
2023/06/23 12:49:13;;;;;;;;;;;;;;;;;;2202355;67;2005;-23
2023/06/23 12:51:43;;;;;;;;;;;;;;;;;;2199061;59;1878;-23
2023/06/23 12:54:14;;;;;;;;;;;;;;;;;;2202552;59;2507;-23
2023/06/23 12:56:44;;;;;;;;;;;;;;;;;;2202909;67;2678;-23
2023/06/23 12:59:14;;;;;;;;;;;;;;;;;;2202402;59;2069;-23
2023/06/23 13:01:44;;;;;;;;;;;;;;;;;;2202902;67;2421;-23
2023/06/23 13:04:15;;;;;;;;;;;;;;;;;;2202147;67;2007;-23
2023/06/23 13:06:45;;;;;;;;;;;;;;;;;;2202742;67;2056;-23
2023/06/23 13:09:15;;;;;;;;;;;;;;;;;;2202653;67;1835;-23
2023/06/23 13:11:45;;;;;;;;;;;;;;;;;;2203739;67;1785;-23
2023/06/23 13:14:18;;;;;;;;;;;;;;;;;;2202845;59;2586;-23
2023/06/23 13:16:49;;;;;;;;;;;;;;;;;;2202354;67;2276;-23
2023/06/23 13:19:19;;;;;;;;;;;;;;;;;;2202060;59;1946;-23
2023/06/23 13:21:51;;;;;;;;;;;;;;;;;;2203295;67;2181;-23
2023/06/23 13:24:21;;;;;;;;;;;;;;;;;;2202011;59;2102;-23
2023/06/23 13:26:52;;;;;;;;;;;;;;;;;;2202506;59;2074;-23
2023/06/23 13:29:22;;;;;;;;;;;;;;;;;;2202917;59;2022;-23
2023/06/23 13:31:53;;;;;;;;;;;;;;;;;;2203292;60;2526;-23
2023/06/23 13:34:26;;;;;;;;;;;;;;;;;;2202475;67;2694;-23
2023/06/23 13:36:59;;;;;;;;;;;;;;;;;;2202675;67;1912;-23
2023/06/23 13:39:29;;;;;;;;;;;;;;;;;;2202631;59;2353;-23
2023/06/23 13:42:00;;;;;;;;;;;;;;;;;;2200316;59;2316;-23
2023/06/23 13:44:30;;;;;;;;;;;;;;;;;;2199840;59;3583;-23
2023/06/23 13:47:01;;;;;;;;;;;;;;;;;;2196728;59;2591;-23
2023/06/23 13:49:31;;;;;;;;;;;;;;;;;;2202822;59;2036;-23
2023/06/23 13:52:02;;;;;;;;;;;;;;;;;;2202282;59;1986;-23
2023/06/23 13:54:33;;;;;;;;;;;;;;;;;;2202310;59;2074;-23
2023/06/23 13:57:03;;;;;;;;;;;;;;;;;;2202653;67;2083;-23
2023/06/23 13:59:34;;;;;;;;;;;;;;;;;;2202403;67;2187;-23
2023/06/23 14:02:04;;;;;;;;;;;;;;;;;;2202301;59;2079;-22
2023/06/23 14:04:34;;;;;;;;;;;;;;;;;;2201774;67;2015;-22
2023/06/23 14:07:05;;;;;;;;;;;;;;;;;;2203085;67;2511;-23
2023/06/23 14:09:35;;;;;;;;;;;;;;;;;;2202841;67;1917;-23
2023/06/23 14:12:11;;;;;;;;;;;;;;;;;;2203509;59;2489;-23
2023/06/23 14:14:41;;;;;;;;;;;;;;;;;;2203392;59;2709;-22
2023/06/23 14:17:12;;;;;;;;;;;;;;;;;;2202327;67;2068;-23
2023/06/23 14:19:42;;;;;;;;;;;;;;;;;;2204032;59;2132;-22
2023/06/23 14:22:15;;;;;;;;;;;;;;;;;;2198722;59;1976;-23
2023/06/23 14:24:46;;;;;;;;;;;;;;;;;;2203166;59;1919;-23
2023/06/23 14:27:16;;;;;;;;;;;;;;;;;;2203016;59;1922;-22
2023/06/23 14:29:46;;;;;;;;;;;;;;;;;;2202846;67;2428;-23
2023/06/23 14:32:16;;;;;;;;;;;;;;;;;;2202012;59;2616;-23
2023/06/23 14:34:47;;;;;;;;;;;;;;;;;;2202862;67;2783;-23
2023/06/23 14:37:17;;;;;;;;;;;;;;;;;;2202923;67;2124;-22
2023/06/23 14:39:47;;;;;;;;;;;;;;;;;;2203276;59;2138;-22
2023/06/23 14:42:18;;;;;;;;;;;;;;;;;;2198982;67;2689;-22
2023/06/23 14:44:48;;;;;;;;;;;;;;;;;;2203741;59;1907;-22
2023/06/23 14:47:18;;;;;;;;;;;;;;;;;;2202204;59;3022;-22
2023/06/23 14:49:48;;;;;;;;;;;;;;;;;;2202619;59;2661;-22
2023/06/23 14:52:19;;;;;;;;;;;;;;;;;;2202501;59;2485;-22
2023/06/23 14:54:49;;;;;;;;;;;;;;;;;;2202240;67;1988;-22
2023/06/23 14:57:20;;;;;;;;;;;;;;;;;;2198040;67;2439;-23
2023/06/23 14:59:50;;;;;;;;;;;;;;;;;;2201882;67;2651;-22
2023/06/23 15:02:20;;;;;;;;;;;;;;;;;;2201807;59;2668;-23
2023/06/23 15:04:51;;;;;;;;;;;;;;;;;;2199023;59;2849;-22
2023/06/23 15:07:21;;;;;;;;;;;;;;;;;;2201630;67;2007;-23
2023/06/23 15:09:51;;;;;;;;;;;;;;;;;;2203065;67;2274;-23
2023/06/23 15:12:21;;;;;;;;;;;;;;;;;;2196444;59;3836;-22
2023/06/23 15:14:52;;;;;;;;;;;;;;;;;;2202336;59;3599;-22
2023/06/23 15:17:22;;;;;;;;;;;;;;;;;;2201854;67;2065;-22
2023/06/23 15:19:55;;;;;;;;;;;;;;;;;;2199000;59;2737;-23
2023/06/23 15:22:25;;;;;;;;;;;;;;;;;;2201077;67;3496;-23
2023/06/23 15:24:56;;;;;;;;;;;;;;;;;;2202359;59;2308;-23
2023/06/23 15:27:26;;;;;;;;;;;;;;;;;;2196870;59;2549;-23
2023/06/23 15:29:56;;;;;;;;;;;;;;;;;;2201000;59;2512;-23
2023/06/23 15:32:26;;;;;;;;;;;;;;;;;;2201706;59;2166;-23
2023/06/23 15:34:57;;;;;;;;;;;;;;;;;;2201428;67;2459;-23
2023/06/23 15:37:30;;;;;;;;;;;;;;;;;;2202485;63;1870;-23
2023/06/23 15:40:01;;;;;;;;;;;;;;;;;;2201314;59;2006;-23
2023/06/23 15:42:31;;;;;;;;;;;;;;;;;;2201314;59;2585;-23
2023/06/23 15:45:02;;;;;;;;;;;;;;;;;;2200513;59;2607;-23
2023/06/23 15:47:32;;;;;;;;;;;;;;;;;;2201097;67;1855;-23
2023/06/23 15:50:02;;;;;;;;;;;;;;;;;;2200741;59;2401;-23
2023/06/23 15:52:33;;;;;;;;;;;;;;;;;;2201607;59;2085;-23
2023/06/23 15:55:03;;;;;;;;;;;;;;;;;;2201630;67;2476;-23
2023/06/23 15:57:33;;;;;;;;;;;;;;;;;;2202439;59;2603;-23
2023/06/23 16:00:04;;;;;;;;;;;;;;;;;;2198505;59;2395;-23
2023/06/23 16:02:34;;;;;;;;;;;;;;;;;;2198289;59;2493;-23
2023/06/23 16:05:04;;;;;;;;;;;;;;;;;;2201541;67;2568;-23
2023/06/23 16:07:35;;;;;;;;;;;;;;;;;;2202667;67;2466;-22
2023/06/23 16:10:05;;;;;;;;;;;;;;;;;;2201019;67;2587;-22
2023/06/23 16:12:35;;;;;;;;;;;;;;;;;;2201482;67;2471;-23
2023/06/23 16:15:06;;;;;;;;;;;;;;;;;;2198010;59;2654;-22
2023/06/23 16:17:36;;;;;;;;;;;;;;;;;;2198543;59;1941;-22
2023/06/23 16:20:07;;;;;;;;;;;;;;;;;;2201382;59;2295;-22
2023/06/23 16:22:38;;;;;;;;;;;;;;;;;;2202777;59;2459;-23
2023/06/23 16:25:08;;;;;;;;;;;;;;;;;;2198293;59;3075;-23
2023/06/23 16:27:38;;;;;;;;;;;;;;;;;;2202170;59;2378;-23
2023/06/23 16:30:08;;;;;;;;;;;;;;;;;;2202769;59;1826;-23
2023/06/23 16:32:42;;;;;;;;;;;;;;;;;;2202585;59;1866;-23
2023/06/23 16:35:12;;;;;;;;;;;;;;;;;;2201804;67;1829;-23
2023/06/23 16:37:42;;;;;;;;;;;;;;;;;;2199864;59;1762;-23
2023/06/23 16:40:12;;;;;;;;;;;;;;;;;;2198332;59;2080;-23
2023/06/23 16:42:42;;;;;;;;;;;;;;;;;;2203218;67;2322;-23
2023/06/23 16:45:13;;;;;;;;;;;;;;;;;;2202189;67;2653;-23
2023/06/23 16:47:46;;;;;;;;;;;;;;;;;;2200139;67;2402;-23
2023/06/23 16:50:16;;;;;;;;;;;;;;;;;;2201449;59;2270;-23
2023/06/23 16:52:48;;;;;;;;;;;;;;;;;;2203068;59;1965;-23
2023/06/23 16:55:18;;;;;;;;;;;;;;;;;;2202565;67;2017;-23
2023/06/23 16:57:48;;;;;;;;;;;;;;;;;;2203806;59;1843;-23
2023/06/23 17:00:19;;;;;;;;;;;;;;;;;;2201120;59;2652;-23
2023/06/23 17:02:49;;;;;;;;;;;;;;;;;;2198839;67;1796;-23
2023/06/23 17:05:20;;;;;;;;;;;;;;;;;;2200307;59;2411;-23
2023/06/23 17:07:53;;;;;;;;;;;;;;;;;;2201637;59;2164;-23
2023/06/23 17:10:23;;;;;;;;;;;;;;;;;;2202148;67;2292;-23
2023/06/23 17:12:53;;;;;;;;;;;;;;;;;;2202943;67;1763;-23
2023/06/23 17:15:24;;;;;;;;;;;;;;;;;;2197413;60;3837;-23
2023/06/23 17:17:54;;;;;;;;;;;;;;;;;;2199521;67;2020;-23
2023/06/23 17:20:24;;;;;;;;;;;;;;;;;;2200786;59;2361;-23
2023/06/23 17:22:55;;;;;;;;;;;;;;;;;;2199539;59;2538;-23
2023/06/23 17:25:25;;;;;;;;;;;;;;;;;;2199094;59;1859;-23
2023/06/23 17:27:55;;;;;;;;;;;;;;;;;;2201704;59;1855;-23
2023/06/23 17:30:25;;;;;;;;;;;;;;;;;;2197816;59;2332;-23
2023/06/23 17:32:56;;;;;;;;;;;;;;;;;;2199609;67;2443;-23
2023/06/23 17:35:26;;;;;;;;;;;;;;;;;;2197252;67;3061;-23